Time;durP1;ratioP1;P1;durP2;ratioP2;P2;SDS_P1;SDS_P2;PMS_P1;PMS_P2;Temp;Humidity;BMP_temperature;BMP_pressure;BME280_temperature;BME280_humidity;BME280_pressure;Samples;Min_cycle;Max_cycle;Signal;HPM_P1;HPM_P2
2022/01/19 00:00:12;;;;;;;68.50;21.52;;;5.60;99.90;;;;;;5050348;28;20460;-65
2022/01/19 00:02:38;;;;;;;69.63;22.42;;;5.60;99.90;;;;;;5032580;28;20491;-64
2022/01/19 00:05:05;;;;;;;67.47;22.00;;;5.60;99.90;;;;;;5050733;28;20048;-65
2022/01/19 00:07:31;;;;;;;69.63;21.80;;;5.60;99.90;;;;;;5050502;28;20041;-65
2022/01/19 00:10:02;;;;;;;64.32;21.77;;;5.60;99.90;;;;;;5050502;28;20047;-65
2022/01/19 00:12:28;;;;;;;61.42;20.83;;;5.60;99.90;;;;;;5032164;28;20079;-64
2022/01/19 00:14:54;;;;;;;62.08;20.30;;;5.60;99.90;;;;;;5050135;28;20119;-65
2022/01/19 00:17:19;;;;;;;62.22;21.08;;;5.60;99.90;;;;;;5032433;28;20044;-65
2022/01/19 00:19:45;;;;;;;58.25;20.25;;;5.60;99.90;;;;;;5032396;28;20044;-65
2022/01/19 00:22:10;;;;;;;62.15;21.45;;;5.60;99.90;;;;;;5032225;28;20041;-65
2022/01/19 00:24:36;;;;;;;59.30;19.80;;;5.60;99.90;;;;;;5050008;28;20705;-65
2022/01/19 00:27:01;;;;;;;54.08;20.02;;;5.60;99.90;;;;;;5032079;28;20036;-65
2022/01/19 00:29:27;;;;;;;57.33;20.25;;;5.60;99.90;;;;;;5049825;28;20090;-65
2022/01/19 00:31:52;;;;;;;58.13;19.08;;;5.60;99.90;;;;;;5050120;28;20094;-65
2022/01/19 00:34:18;;;;;;;52.05;19.88;;;5.60;99.90;;;;;;5031900;28;20124;-65
2022/01/19 00:36:43;;;;;;;58.67;20.73;;;5.50;99.90;;;;;;5032156;28;20037;-65
2022/01/19 00:39:09;;;;;;;62.28;21.65;;;5.40;99.90;;;;;;5050058;28;20040;-66
2022/01/19 00:41:34;;;;;;;61.03;19.50;;;5.30;99.90;;;;;;5049808;28;20147;-66
2022/01/19 00:44:00;;;;;;;51.75;18.33;;;5.30;99.90;;;;;;5049469;28;20043;-66
2022/01/19 00:46:25;;;;;;;56.40;19.00;;;5.20;99.90;;;;;;5050028;28;20039;-66
2022/01/19 00:48:51;;;;;;;55.05;19.40;;;5.10;99.90;;;;;;5050105;28;20043;-66
2022/01/19 00:51:16;;;;;;;54.83;18.95;;;5.00;99.90;;;;;;5049743;28;20037;-66
2022/01/19 00:53:42;;;;;;;57.60;19.77;;;4.90;99.90;;;;;;5031921;28;20124;-66
2022/01/19 00:56:08;;;;;;;61.65;18.98;;;4.80;99.90;;;;;;5031820;28;20672;-66
2022/01/19 00:58:33;;;;;;;49.05;17.33;;;4.70;99.90;;;;;;5049687;28;20069;-66
2022/01/19 01:00:59;;;;;;;57.30;18.15;;;4.60;99.90;;;;;;5032141;28;20539;-66
2022/01/19 01:03:24;;;;;;;52.83;17.98;;;4.50;99.90;;;;;;5049335;28;20037;-66
2022/01/19 01:05:50;;;;;;;50.80;17.75;;;4.40;99.90;;;;;;5031792;28;20057;-66
2022/01/19 01:08:15;;;;;;;49.55;17.40;;;4.20;99.90;;;;;;5049875;28;20072;-66
2022/01/19 01:10:42;;;;;;;39.75;15.43;;;4.10;99.90;;;;;;5032054;28;20072;-67
2022/01/19 01:15:22;;;;;;;36.22;13.77;;;4.00;99.90;;;;;;5049117;28;20553;-65
2022/01/19 01:16:18;;;;;;;43.10;15.77;;;3.70;99.90;;;;;;5049254;28;20863;-65
2022/01/19 01:18:44;;;;;;;45.90;15.85;;;3.50;99.90;;;;;;5031798;28;20124;-67
2022/01/19 01:21:10;;;;;;;49.63;17.30;;;3.50;99.90;;;;;;5031965;28;20503;-66
2022/01/19 01:23:35;;;;;;;33.35;12.63;;;3.50;99.90;;;;;;5048970;28;20045;-66
2022/01/19 01:26:04;;;;;;;40.30;13.77;;;3.30;99.90;;;;;;5031536;28;20041;-65
2022/01/19 01:28:29;;;;;;;40.75;15.15;;;3.10;99.90;;;;;;5031595;28;20415;-67
2022/01/19 01:30:55;;;;;;;45.15;14.63;;;3.00;99.90;;;;;;5049550;28;20041;-66
2022/01/19 01:33:21;;;;;;;42.95;14.52;;;2.90;99.90;;;;;;5049118;28;20037;-65
2022/01/19 01:35:47;;;;;;;51.50;16.65;;;2.80;99.90;;;;;;5049258;28;20045;-66
2022/01/19 01:38:14;;;;;;;130.20;18.10;;;2.90;99.90;;;;;;5050009;28;20133;-66
2022/01/19 01:40:39;;;;;;;87.85;18.10;;;2.90;99.90;;;;;;5053486;28;20102;-66
2022/01/19 01:43:08;;;;;;;146.05;19.45;;;2.90;99.90;;;;;;5053080;28;20040;-66
2022/01/19 01:45:38;;;;;;;63.72;17.35;;;3.00;99.90;;;;;;5053150;28;20403;-66
2022/01/19 01:53:27;;;;;;;331.13;21.88;;;2.80;99.90;;;;;;5052956;28;20072;-66
2022/01/19 01:56:00;;;;;;;425.20;19.48;;;2.70;99.90;;;;;;5052976;28;20487;-66
2022/01/19 01:58:28;;;;;;;151.93;16.10;;;2.60;99.90;;;;;;5052902;28;20041;-66
2022/01/19 02:00:55;;;;;;;246.05;17.13;;;2.50;99.90;;;;;;5052712;28;20560;-66
2022/01/19 02:03:21;;;;;;;330.70;23.98;;;2.50;99.90;;;;;;5052868;28;20114;-66
2022/01/19 02:06:21;;;;;;;469.98;27.02;;;2.50;99.90;;;;;;5034843;28;20068;-64
2022/01/19 02:15:47;;;;;;;345.45;24.10;;;2.60;99.90;;;;;;5034928;28;20049;-64
2022/01/19 02:21:38;;;;;;;467.17;28.55;;;2.90;99.90;;;;;;5052351;28;20107;-64
2022/01/19 02:22:59;;;;;;;353.92;25.42;;;3.20;99.90;;;;;;5052092;28;20080;-64
2022/01/19 02:25:28;;;;;;;511.33;28.83;;;3.30;99.90;;;;;;5052615;28;20120;-64
2022/01/19 02:41:26;;;;;;;477.50;27.52;;;3.50;99.90;;;;;;5051923;28;20594;-64
2022/01/19 02:43:52;;;;;;;317.55;22.65;;;3.60;99.90;;;;;;5052021;28;20036;-64
2022/01/19 02:49:15;;;;;;;392.77;26.80;;;3.50;99.90;;;;;;5051398;28;20055;-64
2022/01/19 02:51:46;;;;;;;436.55;27.00;;;3.50;99.90;;;;;;5034195;28;20473;-64
2022/01/19 02:54:14;;;;;;;331.65;24.02;;;3.50;99.90;;;;;;5051800;28;20128;-64
2022/01/19 02:56:42;;;;;;;303.98;24.23;;;3.50;99.90;;;;;;5017520;28;20076;-64
2022/01/19 02:59:19;;;;;;;360.05;25.98;;;3.50;99.90;;;;;;5051722;28;20059;-64
2022/01/19 03:09:42;;;;;;;205.73;20.80;;;3.20;99.90;;;;;;5051417;28;20052;-64
2022/01/19 03:12:09;;;;;;;211.93;20.33;;;3.20;99.90;;;;;;5051339;28;20450;-64
2022/01/19 03:14:34;;;;;;;290.17;20.25;;;3.20;99.90;;;;;;5051523;28;20045;-64
2022/01/19 03:17:00;;;;;;;252.90;21.02;;;3.20;99.90;;;;;;5051615;28;20125;-64
2022/01/19 03:19:28;;;;;;;198.32;18.88;;;3.30;99.90;;;;;;5033498;28;20041;-64
2022/01/19 03:24:20;;;;;;;349.42;23.35;;;3.10;99.90;;;;;;5074441;22;20097;-65
2022/01/19 03:26:46;;;;;;;368.08;22.65;;;3.00;99.90;;;;;;5071563;28;20040;-65
2022/01/19 03:29:11;;;;;;;242.90;22.80;;;2.90;99.90;;;;;;5071349;28;20093;-64
2022/01/19 03:31:37;;;;;;;179.65;18.40;;;2.80;99.90;;;;;;5071190;28;20044;-64
2022/01/19 03:34:05;;;;;;;209.40;19.98;;;2.80;99.90;;;;;;5070794;28;20047;-65
2022/01/19 03:36:30;;;;;;;228.98;19.10;;;2.70;99.90;;;;;;5071146;28;20036;-64
2022/01/19 03:38:56;;;;;;;208.77;17.08;;;2.70;99.90;;;;;;5070854;28;20101;-64
2022/01/19 03:41:22;;;;;;;251.18;18.65;;;2.60;99.90;;;;;;5042144;28;20129;-64
2022/01/19 03:43:48;;;;;;;268.35;20.10;;;2.50;99.90;;;;;;5032758;28;20087;-64
2022/01/19 03:46:15;;;;;;;257.42;21.38;;;2.50;99.90;;;;;;5050720;28;20076;-64
2022/01/19 03:48:50;;;;;;;266.42;19.65;;;2.50;99.90;;;;;;5050981;28;20048;-64
2022/01/19 03:51:15;;;;;;;289.50;20.75;;;2.50;99.90;;;;;;5032886;28;20064;-64
2022/01/19 03:53:41;;;;;;;271.05;19.02;;;2.50;99.90;;;;;;5032454;28;20442;-65
2022/01/19 03:56:07;;;;;;;192.77;16.23;;;2.40;99.90;;;;;;5049870;28;20144;-65
2022/01/19 03:58:32;;;;;;;281.20;18.60;;;2.40;99.90;;;;;;5049806;28;20033;-64
2022/01/19 04:00:59;;;;;;;277.60;19.00;;;2.40;99.90;;;;;;5049575;28;20621;-64
2022/01/19 04:06:40;;;;;;;168.88;16.63;;;2.30;99.90;;;;;;5034244;28;20052;-64
2022/01/19 04:09:03;;;;;;;273.23;18.73;;;2.30;99.90;;;;;;5050099;28;20084;-64
2022/01/19 04:11:29;;;;;;;177.43;17.42;;;2.30;99.90;;;;;;5050452;28;20132;-65
2022/01/19 04:14:21;;;;;;;289.70;20.05;;;2.20;99.90;;;;;;5031972;28;20049;-65
2022/01/19 04:16:43;;;;;;;225.55;17.75;;;2.20;99.90;;;;;;5032058;28;20464;-65
2022/01/19 04:21:54;;;;;;;267.70;18.77;;;2.10;99.90;;;;;;5050296;28;20088;-64
2022/01/19 04:24:20;;;;;;;253.60;20.23;;;2.10;99.90;;;;;;5049489;28;20051;-64
2022/01/19 04:26:56;;;;;;;225.80;19.58;;;2.10;99.90;;;;;;5049927;28;20045;-65
2022/01/19 04:29:22;;;;;;;159.57;17.08;;;2.10;99.90;;;;;;5032180;28;20461;-64
2022/01/19 04:31:48;;;;;;;156.85;18.13;;;2.10;99.90;;;;;;5032439;28;20045;-65
2022/01/19 04:34:15;;;;;;;247.85;21.38;;;2.10;99.90;;;;;;5031835;28;20555;-65
2022/01/19 04:43:51;;;;;;;169.80;16.58;;;2.20;99.90;;;;;;5031895;28;20080;-64
2022/01/19 05:06:22;;;;;;;154.65;18.48;;;2.00;99.90;;;;;;5049444;28;20041;-64
2022/01/19 05:08:56;;;;;;;131.00;17.13;;;2.00;99.90;;;;;;5031864;28;20557;-65
2022/01/19 05:14:07;;;;;;;165.20;17.08;;;2.00;99.90;;;;;;5053227;28;20509;-65
2022/01/19 05:16:32;;;;;;;193.27;19.55;;;2.00;99.90;;;;;;5053680;28;20124;-65
2022/01/19 05:18:58;;;;;;;145.20;18.13;;;1.90;99.90;;;;;;5053448;28;20086;-65
2022/01/19 05:21:23;;;;;;;306.15;23.20;;;1.90;99.90;;;;;;5053881;28;20106;-64
2022/01/19 05:23:49;;;;;;;161.45;17.83;;;1.80;99.90;;;;;;5053315;28;20132;-65
2022/01/19 05:26:15;;;;;;;231.55;19.73;;;1.80;99.90;;;;;;5053724;28;20047;-65
2022/01/19 05:28:41;;;;;;;202.00;20.55;;;1.70;99.90;;;;;;5035575;28;20625;-65
2022/01/19 05:31:06;;;;;;;207.07;22.40;;;1.70;99.90;;;;;;5053479;28;20036;-65
2022/01/19 05:33:32;;;;;;;248.70;21.77;;;1.70;99.90;;;;;;5053126;28;20037;-65
2022/01/19 05:35:58;;;;;;;218.60;20.98;;;1.70;99.90;;;;;;5035464;28;20376;-65
2022/01/19 05:38:23;;;;;;;328.98;21.98;;;1.70;99.90;;;;;;5053376;28;20049;-65
2022/01/19 05:40:49;;;;;;;262.23;19.60;;;1.70;99.90;;;;;;5053324;28;20132;-65
2022/01/19 05:43:14;;;;;;;296.83;21.63;;;1.60;99.90;;;;;;5035033;28;20036;-65
2022/01/19 05:45:40;;;;;;;294.98;20.92;;;1.60;99.90;;;;;;5053356;28;20033;-65
2022/01/19 05:48:07;;;;;;;298.45;22.42;;;1.50;99.90;;;;;;5035086;28;20481;-65
2022/01/19 05:50:33;;;;;;;279.92;23.70;;;1.50;99.90;;;;;;5035348;28;20056;-65
2022/01/19 05:52:59;;;;;;;218.20;21.95;;;1.50;99.90;;;;;;5052955;28;20410;-65
2022/01/19 05:55:24;;;;;;;307.88;23.08;;;1.40;99.90;;;;;;5053137;28;20418;-65
2022/01/19 05:57:50;;;;;;;272.27;21.67;;;1.40;99.90;;;;;;5050923;28;20049;-65
2022/01/19 06:00:16;;;;;;;236.38;23.58;;;1.40;99.90;;;;;;5049802;28;20048;-65
2022/01/19 06:02:41;;;;;;;316.05;24.30;;;1.50;99.90;;;;;;5031324;28;20137;-65
2022/01/19 06:05:08;;;;;;;185.40;18.98;;;1.50;99.90;;;;;;5050074;28;20044;-65
2022/01/19 06:07:41;;;;;;;240.93;22.75;;;1.60;99.90;;;;;;5049913;28;20056;-65
2022/01/19 06:10:10;;;;;;;198.68;22.80;;;1.60;99.90;;;;;;5049376;28;20056;-65
2022/01/19 06:12:36;;;;;;;190.23;20.15;;;1.70;99.90;;;;;;5049251;28;20033;-65
2022/01/19 06:15:02;;;;;;;129.80;18.88;;;1.70;99.90;;;;;;5049625;28;20095;-65
2022/01/19 06:17:28;;;;;;;213.90;23.33;;;1.80;99.90;;;;;;5031659;28;20045;-65
2022/01/19 06:19:54;;;;;;;127.35;20.00;;;1.80;99.90;;;;;;5049469;28;20047;-65
2022/01/19 06:22:21;;;;;;;119.13;18.05;;;1.80;99.90;;;;;;5030860;28;20409;-65
2022/01/19 06:24:47;;;;;;;112.40;18.67;;;1.80;99.90;;;;;;5048429;28;20048;-65
2022/01/19 06:27:13;;;;;;;107.25;18.85;;;1.80;99.90;;;;;;5049470;28;20083;-63
2022/01/19 06:29:39;;;;;;;99.30;19.77;;;1.80;99.90;;;;;;5049149;28;20607;-65
2022/01/19 06:32:05;;;;;;;96.72;22.00;;;1.90;99.90;;;;;;5049233;28;20727;-65
2022/01/19 06:34:30;;;;;;;80.40;20.88;;;1.90;99.90;;;;;;5048885;28;20052;-65
2022/01/19 06:36:56;;;;;;;95.45;22.67;;;2.00;99.90;;;;;;5049080;28;20045;-64
2022/01/19 06:39:22;;;;;;;84.55;23.00;;;2.00;99.90;;;;;;5031043;28;20060;-65
2022/01/19 06:41:48;;;;;;;79.72;23.83;;;2.10;99.90;;;;;;5048963;28;20036;-65
2022/01/19 06:44:15;;;;;;;77.22;24.23;;;2.20;99.90;;;;;;5048566;28;20082;-64
2022/01/19 06:46:43;;;;;;;79.72;24.02;;;2.30;99.90;;;;;;5049003;28;20040;-66
2022/01/19 06:49:10;;;;;;;79.53;25.80;;;2.30;99.90;;;;;;5048916;28;20041;-65
2022/01/19 06:51:36;;;;;;;80.70;24.98;;;2.40;99.90;;;;;;5014732;28;20296;-66
2022/01/19 06:54:01;;;;;;;76.15;26.05;;;2.40;99.90;;;;;;5048573;28;20675;-65
2022/01/19 06:56:27;;;;;;;73.30;27.00;;;2.50;99.90;;;;;;5048798;28;20723;-66
2022/01/19 06:58:53;;;;;;;81.00;27.40;;;2.60;99.90;;;;;;5030657;28;20048;-65
2022/01/19 07:01:19;;;;;;;80.15;25.48;;;2.60;99.90;;;;;;5048751;28;20044;-65
2022/01/19 07:03:44;;;;;;;76.72;27.10;;;2.60;99.90;;;;;;5030698;28;20086;-64
2022/01/19 07:06:11;;;;;;;69.07;24.67;;;2.70;99.90;;;;;;5048750;28;20105;-64
2022/01/19 07:08:40;;;;;;;76.18;25.23;;;2.70;99.90;;;;;;5048461;28;20498;-64
2022/01/19 07:11:05;;;;;;;74.95;27.10;;;2.70;99.90;;;;;;5031597;28;20095;-64
2022/01/19 07:13:31;;;;;;;64.55;24.73;;;2.70;99.90;;;;;;5051003;28;20505;-64
2022/01/19 07:15:57;;;;;;;68.15;27.02;;;2.70;99.90;;;;;;5050724;28;20041;-64
2022/01/19 07:18:23;;;;;;;64.93;26.48;;;2.70;99.90;;;;;;5017207;28;20076;-64
2022/01/19 07:20:48;;;;;;;64.18;25.48;;;2.70;99.90;;;;;;5033612;28;20044;-64
2022/01/19 07:23:14;;;;;;;71.03;29.40;;;2.70;99.90;;;;;;5051002;28;20474;-64
2022/01/19 07:25:39;;;;;;;64.28;27.45;;;2.70;99.90;;;;;;5051306;28;20067;-64
2022/01/19 07:28:08;;;;;;;72.35;26.98;;;2.70;99.90;;;;;;5051023;28;20098;-64
2022/01/19 07:30:34;;;;;;;70.13;27.77;;;2.70;99.90;;;;;;5051488;28;20079;-64
2022/01/19 07:33:00;;;;;;;71.35;27.27;;;2.80;99.90;;;;;;5051056;28;20036;-64
2022/01/19 07:35:25;;;;;;;76.90;31.02;;;2.80;99.90;;;;;;5050525;28;20041;-64
2022/01/19 07:37:52;;;;;;;75.05;30.45;;;2.80;99.90;;;;;;5050648;28;20380;-64
2022/01/19 07:40:17;;;;;;;80.43;27.85;;;2.80;99.90;;;;;;5051041;28;20123;-64
2022/01/19 07:42:43;;;;;;;75.28;28.50;;;2.90;99.90;;;;;;5050671;28;20486;-64
2022/01/19 07:45:09;;;;;;;68.40;28.15;;;2.90;99.90;;;;;;5033364;28;20049;-64
2022/01/19 07:47:35;;;;;;;77.47;29.70;;;2.90;99.90;;;;;;5050805;28;20403;-64
2022/01/19 07:50:00;;;;;;;71.93;29.70;;;3.00;99.90;;;;;;5033296;28;20052;-64
2022/01/19 07:52:26;;;;;;;65.22;26.08;;;3.00;99.90;;;;;;5050900;28;20056;-64
2022/01/19 07:54:52;;;;;;;67.60;29.15;;;3.00;99.90;;;;;;5032769;28;20487;-64
2022/01/19 07:57:18;;;;;;;76.40;30.48;;;3.10;99.90;;;;;;5050591;28;20044;-64
2022/01/19 07:59:43;;;;;;;74.47;30.85;;;3.10;99.90;;;;;;5050863;28;20045;-64
2022/01/19 08:02:11;;;;;;;79.13;36.85;;;3.20;99.90;;;;;;5050831;28;20025;-64
2022/01/19 08:04:37;;;;;;;79.07;33.63;;;3.20;99.90;;;;;;5050507;28;20044;-64
2022/01/19 08:07:03;;;;;;;70.97;34.13;;;3.30;99.90;;;;;;5050530;28;20122;-64
2022/01/19 08:09:30;;;;;;;75.75;34.72;;;3.30;99.90;;;;;;5032593;28;20076;-63
2022/01/19 08:11:55;;;;;;;80.38;38.88;;;3.40;99.90;;;;;;5050288;28;20072;-64
2022/01/19 08:14:24;;;;;;;71.38;35.17;;;3.40;99.90;;;;;;5032312;28;20120;-64
2022/01/19 08:16:50;;;;;;;68.90;34.47;;;3.40;99.90;;;;;;5050251;28;20063;-64
2022/01/19 08:19:16;;;;;;;75.30;36.70;;;3.50;99.90;;;;;;5032625;28;20506;-64
2022/01/19 08:21:41;;;;;;;76.30;37.17;;;3.50;99.90;;;;;;5032552;28;20045;-64
2022/01/19 08:24:07;;;;;;;68.68;34.33;;;3.50;99.90;;;;;;5032035;28;20127;-64
2022/01/19 08:26:33;;;;;;;76.18;36.30;;;3.50;99.90;;;;;;5049909;28;20040;-64
2022/01/19 08:28:58;;;;;;;76.88;36.55;;;3.60;99.90;;;;;;5050151;28;20120;-64
2022/01/19 08:31:24;;;;;;;66.53;32.35;;;3.60;99.90;;;;;;5032225;28;20133;-64
2022/01/19 08:33:49;;;;;;;50.10;26.42;;;3.60;99.90;;;;;;5049726;28;20045;-64
2022/01/19 08:36:16;;;;;;;67.25;33.83;;;3.60;99.90;;;;;;5032286;28;20048;-64
2022/01/19 08:38:42;;;;;;;72.28;34.28;;;3.60;99.90;;;;;;5031120;28;20045;-64
2022/01/19 08:41:08;;;;;;;71.32;35.40;;;3.60;99.90;;;;;;5048204;28;20093;-64
2022/01/19 08:43:34;;;;;;;71.28;34.80;;;3.60;99.90;;;;;;5047880;28;20044;-64
2022/01/19 08:46:00;;;;;;;71.35;33.47;;;3.70;99.90;;;;;;5031358;28;20051;-64
2022/01/19 08:48:27;;;;;;;80.15;36.75;;;3.70;99.90;;;;;;5031110;28;20622;-64
2022/01/19 08:50:53;;;;;;;66.15;33.03;;;3.70;99.90;;;;;;5049334;28;20080;-64
2022/01/19 08:53:20;;;;;;;80.65;40.55;;;3.70;99.90;;;;;;5048975;28;20068;-64
2022/01/19 08:55:46;;;;;;;75.93;36.83;;;3.60;99.90;;;;;;5049784;28;20041;-64
2022/01/19 08:58:13;;;;;;;78.22;35.67;;;3.70;99.90;;;;;;5049722;28;20506;-64
2022/01/19 09:00:41;;;;;;;80.75;40.20;;;3.70;99.90;;;;;;5049864;28;20052;-63
2022/01/19 09:03:06;;;;;;;84.40;42.45;;;3.70;99.90;;;;;;5049779;28;20079;-63
2022/01/19 09:05:33;;;;;;;78.53;36.25;;;3.70;99.90;;;;;;5049831;28;20065;-63
2022/01/19 09:07:58;;;;;;;76.93;36.35;;;3.70;99.90;;;;;;5049614;28;20041;-63
2022/01/19 09:10:25;;;;;;;74.63;38.42;;;3.70;99.90;;;;;;5030797;28;20041;-63
2022/01/19 09:12:50;;;;;;;74.35;34.78;;;3.70;99.90;;;;;;5031017;28;20055;-63
2022/01/19 09:15:18;;;;;;;72.75;36.13;;;3.80;99.90;;;;;;5049191;28;20025;-63
2022/01/19 09:17:44;;;;;;;79.47;37.13;;;3.80;99.90;;;;;;5048733;28;20469;-63
2022/01/19 09:20:11;;;;;;;78.18;35.13;;;3.80;99.90;;;;;;5048313;28;20036;-64
2022/01/19 09:22:37;;;;;;;71.13;32.13;;;3.90;99.90;;;;;;5048372;28;20037;-64
2022/01/19 09:25:04;;;;;;;81.18;34.88;;;3.90;99.90;;;;;;5048884;28;20083;-64
2022/01/19 09:27:30;;;;;;;77.65;36.45;;;3.90;99.90;;;;;;5079690;22;20344;-64
2022/01/19 09:29:56;;;;;;;65.63;31.70;;;3.90;99.90;;;;;;5089028;28;20032;-65
2022/01/19 09:32:22;;;;;;;69.13;32.20;;;3.90;99.90;;;;;;5089884;28;20029;-64
2022/01/19 09:34:48;;;;;;;78.68;34.88;;;3.90;99.90;;;;;;5077749;28;20039;-65
2022/01/19 09:37:16;;;;;;;78.88;37.85;;;3.90;99.90;;;;;;5062890;28;20063;-64
2022/01/19 09:39:41;;;;;;;84.18;40.70;;;4.00;99.90;;;;;;5079936;28;20039;-64
2022/01/19 09:42:07;;;;;;;86.07;40.40;;;4.00;99.90;;;;;;5079830;28;20032;-65
2022/01/19 09:44:33;;;;;;;81.30;34.38;;;4.00;99.90;;;;;;5075820;28;20033;-64
2022/01/19 09:46:59;;;;;;;90.78;38.88;;;4.00;99.90;;;;;;5089495;28;20051;-65
2022/01/19 09:49:25;;;;;;;76.85;34.33;;;4.00;99.90;;;;;;5077361;28;20422;-65
2022/01/19 09:51:52;;;;;;;68.30;32.55;;;4.00;99.90;;;;;;5076748;28;20036;-64
2022/01/19 09:54:20;;;;;;;82.88;37.65;;;4.00;99.90;;;;;;5059560;28;20162;-64
2022/01/19 09:56:46;;;;;;;79.60;38.88;;;4.00;99.90;;;;;;5077280;28;20083;-64
2022/01/19 09:59:14;;;;;;;89.85;36.50;;;4.10;99.90;;;;;;5075471;28;20717;-65
2022/01/19 10:02:02;;;;;;;97.68;43.42;;;4.10;99.90;;;;;;5084464;28;20089;-65
2022/01/19 10:04:31;;;;;;;77.07;36.28;;;4.20;99.90;;;;;;5088061;28;20055;-65
2022/01/19 10:07:15;;;;;;;92.90;44.42;;;4.20;99.90;;;;;;5089681;28;20059;-64
2022/01/19 10:09:57;;;;;;;103.03;44.03;;;4.20;99.90;;;;;;5092723;28;20036;-64
2022/01/19 10:18:29;;;;;;;100.65;41.00;;;4.20;99.90;;;;;;5092515;28;20137;-64
2022/01/19 10:21:07;;;;;;;88.40;37.45;;;4.20;99.90;;;;;;5048507;28;20051;-64
2022/01/19 10:23:36;;;;;;;105.65;43.40;;;4.20;99.90;;;;;;5088659;28;20048;-64
2022/01/19 10:26:03;;;;;;;97.25;40.17;;;4.20;99.90;;;;;;5092518;28;20498;-64
2022/01/19 10:28:29;;;;;;;103.80;44.97;;;4.20;99.90;;;;;;5092577;28;20044;-64
2022/01/19 10:30:54;;;;;;;98.22;44.75;;;4.30;99.90;;;;;;5074843;28;20032;-64
2022/01/19 10:33:20;;;;;;;111.22;42.75;;;4.30;99.90;;;;;;5092409;28;20032;-64
2022/01/19 10:35:49;;;;;;;116.20;45.70;;;4.30;99.90;;;;;;5092495;28;20039;-64
2022/01/19 10:38:25;;;;;;;122.13;47.15;;;4.30;99.90;;;;;;5092605;28;20048;-64
2022/01/19 10:41:03;;;;;;;119.80;44.05;;;4.40;99.90;;;;;;5090250;28;20043;-65
2022/01/19 10:43:44;;;;;;;110.03;41.10;;;4.40;99.90;;;;;;5080749;28;20036;-64
2022/01/19 10:46:15;;;;;;;112.10;44.25;;;4.40;99.90;;;;;;5061888;28;20039;-65
2022/01/19 10:48:42;;;;;;;114.55;45.25;;;4.40;99.90;;;;;;5071188;28;20040;-65
2022/01/19 10:51:10;;;;;;;131.38;48.95;;;4.40;99.90;;;;;;5070897;28;20033;-64
2022/01/19 10:53:37;;;;;;;124.32;48.33;;;4.40;99.90;;;;;;5070279;28;20045;-64
2022/01/19 10:56:05;;;;;;;116.10;45.95;;;4.40;99.90;;;;;;5070479;28;20399;-64
2022/01/19 10:58:31;;;;;;;113.60;43.63;;;4.40;99.90;;;;;;5070493;28;20685;-64
2022/01/19 11:00:57;;;;;;;119.65;48.35;;;4.40;99.90;;;;;;5073647;28;20032;-64
2022/01/19 11:03:28;;;;;;;119.15;49.67;;;4.50;99.90;;;;;;5087945;28;20058;-64
2022/01/19 11:05:59;;;;;;;128.93;47.65;;;4.40;99.90;;;;;;5091090;28;20109;-64
2022/01/19 11:08:27;;;;;;;118.20;48.40;;;4.50;99.90;;;;;;5090860;28;20047;-64
2022/01/19 11:10:55;;;;;;;123.53;46.92;;;4.50;99.90;;;;;;5090800;28;20051;-64
2022/01/19 11:13:39;;;;;;;129.38;53.58;;;4.50;99.90;;;;;;5072830;28;20508;-64
2022/01/19 11:16:05;;;;;;;120.72;45.30;;;4.50;99.90;;;;;;5091015;28;20047;-64
2022/01/19 11:18:32;;;;;;;114.25;45.30;;;4.60;99.90;;;;;;5072993;28;20051;-64
2022/01/19 11:21:01;;;;;;;108.45;43.08;;;4.60;99.90;;;;;;5091725;28;20196;-64
2022/01/19 11:23:34;;;;;;;118.90;48.90;;;4.70;99.90;;;;;;5091558;28;20385;-64
2022/01/19 11:26:02;;;;;;;121.70;46.72;;;4.60;99.90;;;;;;5091903;28;20491;-64
2022/01/19 11:28:45;;;;;;;130.25;53.92;;;4.60;99.90;;;;;;5090763;28;20044;-64
2022/01/19 11:31:15;;;;;;;124.82;49.10;;;4.60;99.90;;;;;;5079233;28;20040;-64
2022/01/19 11:33:47;;;;;;;124.55;46.55;;;4.60;99.90;;;;;;5060723;28;20033;-64
2022/01/19 11:36:18;;;;;;;118.93;44.10;;;4.60;99.90;;;;;;5074430;28;20044;-64
2022/01/19 11:38:46;;;;;;;132.55;48.95;;;4.60;99.90;;;;;;5079703;28;20494;-64
2022/01/19 11:41:15;;;;;;;115.38;42.85;;;4.60;99.90;;;;;;5065858;28;20064;-64
2022/01/19 11:43:55;;;;;;;108.13;42.88;;;4.60;99.90;;;;;;5078332;28;20637;-64
2022/01/19 11:46:31;;;;;;;122.95;50.05;;;4.60;99.90;;;;;;5088130;28;20044;-65
2022/01/19 11:48:59;;;;;;;127.68;49.13;;;4.60;99.90;;;;;;5079650;28;20040;-64
2022/01/19 11:51:31;;;;;;;123.22;47.53;;;4.60;99.90;;;;;;5073573;28;20083;-64
2022/01/19 11:54:10;;;;;;;119.75;43.40;;;4.60;99.90;;;;;;5090990;28;20090;-64
2022/01/19 11:57:02;;;;;;;108.95;43.90;;;4.60;99.90;;;;;;5084438;28;20494;-64
2022/01/19 11:59:34;;;;;;;112.75;42.30;;;4.50;99.90;;;;;;5063420;28;20036;-64
2022/01/19 12:02:23;;;;;;;116.82;43.38;;;4.50;99.90;;;;;;5079438;28;20131;-64
2022/01/19 12:04:58;;;;;;;112.45;42.40;;;4.60;99.90;;;;;;5080086;28;20040;-64
2022/01/19 12:07:38;;;;;;;115.63;44.40;;;4.60;99.90;;;;;;5078989;28;20040;-64
2022/01/19 12:10:07;;;;;;;103.43;41.53;;;4.60;99.90;;;;;;5079241;28;20044;-64
2022/01/19 12:12:38;;;;;;;120.97;49.53;;;4.60;99.90;;;;;;5078616;28;20071;-64
2022/01/19 12:15:08;;;;;;;119.57;43.75;;;4.60;99.90;;;;;;5079217;28;20040;-64
2022/01/19 12:17:56;;;;;;;116.13;42.92;;;4.70;99.90;;;;;;5060892;28;20118;-64
2022/01/19 12:20:51;;;;;;;108.68;44.15;;;4.70;99.90;;;;;;5072906;28;20157;-64
2022/01/19 12:23:31;;;;;;;105.30;40.58;;;4.70;99.90;;;;;;5071957;28;20040;-64
2022/01/19 12:26:00;;;;;;;114.65;46.72;;;4.70;99.90;;;;;;5069645;28;20032;-64
2022/01/19 12:28:46;;;;;;;105.28;42.92;;;4.80;99.90;;;;;;5069303;28;20491;-64
2022/01/19 12:31:24;;;;;;;103.22;42.53;;;4.80;99.90;;;;;;5070067;28;20464;-64
2022/01/19 12:34:10;;;;;;;100.38;41.45;;;4.80;99.90;;;;;;5069463;28;20040;-64
2022/01/19 12:36:50;;;;;;;99.18;41.72;;;4.80;99.90;;;;;;5054407;28;20059;-64
2022/01/19 12:39:25;;;;;;;103.53;43.58;;;4.80;99.90;;;;;;5073214;28;20482;-64
2022/01/19 12:41:58;;;;;;;103.53;40.80;;;4.90;99.90;;;;;;5060266;28;20163;-64
2022/01/19 12:44:46;;;;;;;102.70;46.30;;;4.90;99.90;;;;;;5079026;28;20028;-64
2022/01/19 12:47:29;;;;;;;101.70;41.08;;;4.90;99.90;;;;;;5068117;28;20048;-64
2022/01/19 12:50:07;;;;;;;97.10;40.03;;;4.90;99.90;;;;;;5088662;28;20124;-63
2022/01/19 12:52:35;;;;;;;95.57;38.90;;;4.90;99.90;;;;;;5088357;28;20619;-63
2022/01/19 12:55:21;;;;;;;98.38;41.30;;;4.90;99.90;;;;;;5089904;28;20055;-64
2022/01/19 12:57:47;;;;;;;97.78;42.05;;;4.90;99.90;;;;;;5090128;28;20494;-64
2022/01/19 13:00:17;;;;;;;90.38;37.78;;;5.00;99.90;;;;;;5089990;28;20028;-64
2022/01/19 13:02:43;;;;;;;102.10;46.33;;;5.00;99.90;;;;;;5089412;28;20106;-63
2022/01/19 13:05:12;;;;;;;94.05;39.30;;;5.00;99.90;;;;;;5089941;28;20032;-63
2022/01/19 13:07:43;;;;;;;93.50;40.08;;;5.00;99.90;;;;;;5089420;28;20031;-64
2022/01/19 13:10:35;;;;;;;106.97;43.22;;;5.00;99.90;;;;;;5089332;28;20482;-64
2022/01/19 13:13:18;;;;;;;93.05;37.75;;;5.00;99.90;;;;;;5089075;28;20081;-63
2022/01/19 13:16:01;;;;;;;99.65;40.60;;;5.00;99.90;;;;;;5089939;28;20054;-63
2022/01/19 13:18:35;;;;;;;98.43;39.65;;;5.00;99.90;;;;;;5071937;28;20410;-64
2022/01/19 13:21:08;;;;;;;102.90;41.55;;;5.10;99.90;;;;;;5089966;28;20036;-64
2022/01/19 13:23:36;;;;;;;98.15;44.15;;;5.00;99.90;;;;;;5089613;28;20039;-63
2022/01/19 13:26:04;;;;;;;98.72;38.95;;;5.10;99.90;;;;;;5071795;28;20047;-64
2022/01/19 13:28:32;;;;;;;94.55;37.60;;;5.10;99.90;;;;;;5089530;28;20040;-63
2022/01/19 13:31:22;;;;;;;96.60;44.30;;;5.10;99.90;;;;;;5089873;28;20040;-64
2022/01/19 13:33:56;;;;;;;84.43;39.72;;;5.10;99.90;;;;;;5091268;28;20681;-63
2022/01/19 13:36:29;;;;;;;91.82;41.15;;;5.10;99.90;;;;;;5093644;28;20040;-64
2022/01/19 13:38:55;;;;;;;95.60;45.60;;;5.10;99.90;;;;;;5093397;28;20036;-64
2022/01/19 13:41:22;;;;;;;88.03;39.20;;;5.10;99.90;;;;;;5093781;28;20408;-64
2022/01/19 13:43:49;;;;;;;94.95;40.00;;;5.10;99.90;;;;;;5093425;28;20071;-64
2022/01/19 13:46:25;;;;;;;96.50;41.17;;;5.10;99.90;;;;;;5093533;28;20044;-64
2022/01/19 13:49:00;;;;;;;91.90;41.25;;;5.10;99.90;;;;;;5093380;28;20040;-65
2022/01/19 13:51:26;;;;;;;95.32;42.78;;;5.20;99.90;;;;;;5074967;28;20044;-64
2022/01/19 13:53:53;;;;;;;86.38;37.25;;;5.20;99.90;;;;;;5093084;28;20078;-64
2022/01/19 13:56:27;;;;;;;92.65;40.47;;;5.20;99.90;;;;;;5093455;28;20644;-65
2022/01/19 13:58:56;;;;;;;89.75;40.25;;;5.20;99.90;;;;;;5093814;28;20032;-65
2022/01/19 14:01:36;;;;;;;91.38;39.25;;;5.30;99.90;;;;;;5075448;28;20043;-65
2022/01/19 14:04:07;;;;;;;92.43;40.45;;;5.20;99.90;;;;;;5093083;28;20036;-65